Wilshamstead, United Kingdom
Current Conditions -  °F | °C
As of 7:50 AM on Thursday 23 Oct 2014 (Local Time) from EGTC Reporting Station
Broken Clouds Broken Clouds  
Wind Chill: 52°   Ceiling: 3200
Heat Index: 52°   Visibility: 6mi
Dew Point: 52°   Wind: 12mph
Humidity: 100%   Direction: 220°SW
Pressure: 30.09"   Gusts: NA
Location:  52.08°N, 0.45°W
Report Text: EGTC 230650Z 22010KT 9999 BKN032 11/11 Q1019
Loading
Personal Weather Stations






























Interactive Weather Map
Tropical Storm Tracking
New forecast layout! Learn more

10-Day Weather Forecast

Advertisements
Track Severe Weather on mobile